Airfield :







YOU CAN JOIN US ON...

 
LOGIN :

Register | Disclaimer

   EN    FR    IT 

 









Legend :    VFR   Marginal VFR   IFR   Intensive IFR   Very Intensive IFR
Visi :
Ceiling :
>= 8 km
>= 3000ft
5 to 8 km
1000 to 3000 ft
1500m to 5 km
500 to 1000 ft
800 to 1500m
200 to 500 ft
< 800m
< 200 ft
Symbols :   Thunderstorms  Fog  Heavy snow  Heavy precipitations  Wind > 20 kt






- Airport Elevation : 474 ft


KPTD - Potsdam Municipal-Damon field

CURRENT METAR :
  • 232355Z AUTO 00000KT 10SM CLR M02/M05 A3032 RMK AO2

EXPIRED METARs :
  • 232335Z AUTO 00000KT 10SM CLR M02/M05 A3031 RMK AO2
  • 232315Z AUTO 00000KT 10SM FEW050 M02/M05 A3031 RMK AO2
  • 232255Z AUTO 00000KT 10SM FEW050 M01/M07 A3030 RMK AO2
  • 232235Z AUTO 00000KT 10SM CLR M01/M07 A3030 RMK AO2
  • 232215Z AUTO 00000KT 10SM CLR M01/M08 A3030 RMK AO2
  • 232155Z AUTO 00000KT 10SM CLR 00/M09 A3029 RMK AO2
  • 232135Z AUTO 00000KT 10SM CLR 01/M11 A3030 RMK AO2
  • 232115Z AUTO 00000KT 10SM CLR 02/M11 A3030 RMK AO2

TAF N/A



MET'MAP, your aeronautical weather chart ! - Copyright ORBIFLY December 2007 - Disclaimer

ORBIFLY MET'MAP TEAM :

Programming & Development : Alexandra Zaïnal
Concept & original design : Baudouin d'Aumeries
Assistance for programming : Marc-Olivier Méhu
Technical & hardware support : Manuel Goepfert

Contact : metmap@orbifly.com




SOURCES & CREDITS :

   NOAA